メインページ
METAR-TAF:

METAR-TAF

空港 :

カンザスシティ, ミズーリ州, アメリカ合衆国

カンザスシティ国際空港

緯度: 39-17-50N, 経度: 094-43-50W, 海抜: 312m

現時点の気象観測

当レポートは44分前の13:53(UTC)に作成
南東の風 8kt
気温 9°C
湿度 100%
気圧 1008 hPa
視程: 8.0km
高度2700ftの曇り

METAR: KMCI 211353Z 13008KT 5SM BR OVC027 09/09 A2978 RMK AO2 SLP085 T00940089

時間: 08:37 (14:37 UTC)

予報

当レポートは3時間3分前の11:34(UTC)に作成
予報は21日の 12時(UTC)から 22日の 12時(UTC)まで有効
南/南東の風 8kt
視程: 9.7km
高度2000ftの曇り
22日の 0000時(UTC)から
南東の風 7kt
視程: 8.0km
高度1000ftの曇り, 積乱雲.
弱いにわか雨, 近辺で激しい雷雨
22日の 0300時(UTC)から
の風 7kt
視程: 8.0km
高度1500ftの曇り
靄, 近辺でにわか雨
22日の 0700時(UTC)から
変向風 3kt
視程: 10km
高度15000ftの千切れ雲あり

TAF: KMCI 211134Z 2112/2212 15008KT 6SM BR OVC020 FM220000 13007KT 5SM -SHRA VCTS OVC010CB FM220300 19007KT 5SM BR VCSH OVC015 FM220700 VRB03KT P6SM BKN150

4,000以上の空港の気象観測と天気予報(METAR報とTAF報)

利用可能な観測所は地図上に黄色い丸と赤い丸で示す。

丸の上にカーソルを重ねると観測所名を参照できる。

次にクリックすると気象観測と天気予報を参照できる。

マップの切り替え:黒色「×」印の緑ボタンをクリックして拡大、「-」印の緑ボタンをクリックして縮小、緑色の三角印をクリックして隣りの地図に切り替え


METAR-TAF: